Aérodrome :
LOGIN :

S'inscrire | Disclaimer

   EN    FR    IT 

 










Légende :    VFR   VFR Marginal   IFR   IFR Intensif   IFR Très Intensif
Visi : 
Plafond : 
>= 8 km
>= 3000ft
5 à 8 km
1000 à 3000 ft
1500m à 5 km
500 à 1000 ft
800 à 1500m
200 à 500 ft
< 800m
< 200 ft
Symboles :   Orages  Brouillard  Fortes neiges  Fortes précipitations  Vent > 20 kt
SIGMETs :   Divers  Orages  Givrage  Turbulence  Onde Orograph.  Cendres Volcan.






- Altitude de l'aérodrome : 348 ft
- Code IATA : STN


EGSS - London Stansted

DERNIER METAR :
  • 031950Z AUTO 01010KT 330V040 9999 FEW020 13/09 Q1007

METARs EXPIRÉS :
  • 031920Z AUTO 01011KT 9999 FEW022 14/09 Q1007
  • 031850Z AUTO 36012KT 9999 FEW023 14/09 Q1007
  • 031820Z AUTO 02011KT 9999 SCT023 14/09 Q1007
  • 031750Z AUTO 01010KT 9999 NCD 15/09 Q1007
  • 031720Z AUTO 36011KT 330V030 9999 FEW025 15/09 Q1007

TAF TAF EGSS
Valide du 03 à 18h jusqu'au 05 à 00h UTC


031707Z 0318/0424 03012KT 9999 FEW022 SCT040
PROB30
TEMPO 0318/0319 8000 RA BKN014
BECMG 0319/0322 BKN012
TEMPO 0319/0408 6000 RA BKN008
BECMG 0408/0411 SCT030
TEMPO 0415/0424 7000 SHRA
PROB30
TEMPO 0421/0424 4000 +SHRA
ATIS : +44 1279 669 325



MET'MAP, la Météo Aéronautique d'un coup d'oeil ! - Copyright ORBIFLY Décembre 2007 - Disclaimer

ORBIFLY MET'MAP TEAM :

Programmation & Développement : Alexandra Zaïnal
Sur une idée originale de : Baudouin d'Aumeries
Assistance à la programmation : Marc-Olivier Méhu
Soutien technique & logistique : Manuel Goepfert

Contact : metmap@orbifly.com




SOURCES & CREDITS :

   NOAA